Time;durP1;ratioP1;P1;durP2;ratioP2;P2;SDS_P1;SDS_P2;PMS_P1;PMS_P2;Temp;Humidity;BMP_temperature;BMP_pressure;BME280_temperature;BME280_humidity;BME280_pressure;Samples;Min_cycle;Max_cycle;Signal;HPM_P1;HPM_P2
2023/02/10 00:00:00;;;;;;;0.50;0.50;;;1.10;99.90;;;;;;5054793;28;20203;-75
2023/02/10 00:02:25;;;;;;;0.70;0.70;;;1.10;99.90;;;;;;5054527;28;20197;-73
2023/02/10 00:04:51;;;;;;;0.73;0.73;;;1.10;99.90;;;;;;5055066;28;20227;-73
2023/02/10 00:07:50;;;;;;;0.60;0.60;;;1.00;99.90;;;;;;5053324;28;20344;-75
2023/02/10 00:10:16;;;;;;;0.70;0.70;;;0.90;99.90;;;;;;5066804;28;20262;-75
2023/02/10 00:12:45;;;;;;;0.60;0.60;;;0.90;99.90;;;;;;5074172;28;20197;-74
2023/02/10 00:15:11;;;;;;;0.50;0.50;;;0.90;99.90;;;;;;5055849;28;20201;-76
2023/02/10 00:17:39;;;;;;;0.50;0.50;;;0.90;99.90;;;;;;5053107;28;20527;-75
2023/02/10 00:20:18;;;;;;;0.63;0.63;;;0.90;99.90;;;;;;5050652;28;20210;-75
2023/02/10 00:22:43;;;;;;;0.77;0.77;;;0.90;99.90;;;;;;5053201;28;20201;-74
2023/02/10 00:25:09;;;;;;;0.57;0.57;;;1.00;99.90;;;;;;5054597;28;20205;-75
2023/02/10 00:27:35;;;;;;;0.60;0.60;;;1.00;99.90;;;;;;5053921;28;20263;-76
2023/02/10 00:30:27;;;;;;;0.70;0.70;;;1.00;99.90;;;;;;5054159;28;20240;-75
2023/02/10 00:32:59;;;;;;;0.60;0.60;;;1.00;99.90;;;;;;5053902;28;20259;-75
2023/02/10 00:35:33;;;;;;;0.60;0.60;;;0.90;99.90;;;;;;5054587;28;20232;-75
2023/02/10 00:38:12;;;;;;;0.60;0.60;;;0.80;99.90;;;;;;5052958;28;20201;-75
2023/02/10 00:40:37;;;;;;;0.57;0.57;;;0.80;99.90;;;;;;5053886;28;20201;-75
2023/02/10 00:43:03;;;;;;;0.50;0.50;;;0.80;99.90;;;;;;5052799;28;20208;-75
2023/02/10 00:45:46;;;;;;;0.70;0.70;;;0.80;99.90;;;;;;5053640;28;20201;-75
2023/02/10 00:48:21;;;;;;;0.50;0.50;;;0.80;99.90;;;;;;5052274;28;20262;-75
2023/02/10 00:51:18;;;;;;;0.63;0.63;;;0.80;99.90;;;;;;5053731;28;20197;-74
2023/02/10 00:54:08;;;;;;;0.70;0.70;;;0.80;99.90;;;;;;5052231;28;20202;-75
2023/02/10 00:56:46;;;;;;;0.60;0.60;;;0.70;99.90;;;;;;5053530;28;20301;-75
2023/02/10 00:59:19;;;;;;;0.63;0.63;;;0.70;99.90;;;;;;5052356;28;20288;-74
2023/02/10 01:02:19;;;;;;;0.60;0.60;;;0.70;99.90;;;;;;5048979;28;20665;-74
2023/02/10 01:04:53;;;;;;;0.60;0.60;;;0.70;99.90;;;;;;5034323;28;20594;-74
2023/02/10 01:07:21;;;;;;;0.60;0.60;;;0.70;99.90;;;;;;5053407;28;20695;-74
2023/02/10 01:09:51;;;;;;;0.60;0.60;;;0.70;99.90;;;;;;5058487;28;20189;-75
2023/02/10 01:12:16;;;;;;;0.70;0.70;;;0.70;99.90;;;;;;5073728;28;20215;-74
2023/02/10 01:14:44;;;;;;;0.50;0.50;;;0.60;99.90;;;;;;5073392;28;20197;-75
2023/02/10 01:17:10;;;;;;;0.57;0.57;;;0.50;99.90;;;;;;5073495;28;20208;-77
2023/02/10 01:19:39;;;;;;;0.60;0.60;;;0.50;99.90;;;;;;5073787;28;20214;-76
2023/02/10 01:22:28;;;;;;;0.60;0.60;;;0.50;99.90;;;;;;5055944;28;20197;-75
2023/02/10 01:24:53;;;;;;;0.60;0.60;;;0.50;99.90;;;;;;5072615;28;20333;-74
2023/02/10 01:27:19;;;;;;;0.63;0.63;;;0.50;99.90;;;;;;5054507;28;20315;-75
2023/02/10 01:29:45;;;;;;;0.70;0.70;;;0.40;99.90;;;;;;5072909;28;20704;-74
2023/02/10 01:32:31;;;;;;;0.60;0.60;;;0.40;99.90;;;;;;5073336;28;20200;-75
2023/02/10 01:34:57;;;;;;;0.70;0.70;;;0.40;99.90;;;;;;5054131;28;20216;-74
2023/02/10 01:37:29;;;;;;;0.50;0.50;;;0.50;99.90;;;;;;5073086;28;20201;-74
2023/02/10 01:39:55;;;;;;;0.52;0.52;;;0.40;99.90;;;;;;5073523;28;20196;-74
2023/02/10 01:42:21;;;;;;;0.70;0.70;;;0.40;99.90;;;;;;5072858;28;20189;-73
2023/02/10 01:45:27;;;;;;;0.50;0.50;;;0.30;99.90;;;;;;5073252;28;20200;-74
2023/02/10 01:47:56;;;;;;;0.57;0.57;;;0.30;99.90;;;;;;4974770;28;20674;-75
2023/02/10 01:50:26;;;;;;;0.50;0.50;;;0.30;99.90;;;;;;4991490;28;20690;-74
2023/02/10 01:52:52;;;;;;;0.60;0.60;;;0.40;99.90;;;;;;4991772;28;20210;-75
2023/02/10 01:55:24;;;;;;;0.60;0.60;;;0.40;99.90;;;;;;4991557;28;20199;-74
2023/02/10 01:57:57;;;;;;;0.57;0.57;;;0.30;99.90;;;;;;4991734;28;20211;-74
2023/02/10 02:00:24;;;;;;;0.57;0.57;;;0.30;99.90;;;;;;4991505;28;20643;-74
2023/02/10 02:02:50;;;;;;;1.58;1.50;;;0.40;99.90;;;;;;5037580;23;20298;-68
2023/02/10 02:05:32;;;;;;;0.70;0.70;;;0.40;99.90;;;;;;5109409;28;20188;-68
2023/02/10 02:08:08;;;;;;;0.70;0.70;;;0.30;99.90;;;;;;5072504;28;20258;-67
2023/02/10 02:11:10;;;;;;;0.55;0.55;;;0.30;99.90;;;;;;5088310;28;20192;-68
2023/02/10 02:13:56;;;;;;;0.60;0.60;;;0.30;99.90;;;;;;5047370;28;20236;-67
2023/02/10 02:16:46;;;;;;;0.60;0.60;;;0.30;99.90;;;;;;5092466;28;20283;-68
2023/02/10 02:20:39;;;;;;;0.70;0.70;;;0.30;99.90;;;;;;5092551;28;20192;-68
2023/02/10 02:22:39;;;;;;;0.65;0.65;;;0.30;99.90;;;;;;5092359;28;20294;-68
2023/02/10 02:25:15;;;;;;;0.73;0.73;;;0.30;99.90;;;;;;5092635;28;20220;-68
2023/02/10 02:28:11;;;;;;;0.70;0.70;;;0.30;99.90;;;;;;5092296;28;20613;-68
2023/02/10 02:30:52;;;;;;;0.63;0.63;;;0.20;99.90;;;;;;5074289;28;20227;-67
2023/02/10 02:33:42;;;;;;;0.65;0.65;;;0.20;99.90;;;;;;5092438;28;20661;-69
2023/02/10 02:36:13;;;;;;;0.70;0.70;;;0.20;99.90;;;;;;5092958;28;20220;-68
2023/02/10 02:38:41;;;;;;;0.75;0.75;;;0.20;99.90;;;;;;5096157;28;20219;-67
2023/02/10 02:41:07;;;;;;;0.70;0.70;;;0.10;99.90;;;;;;5096348;28;20665;-68
2023/02/10 02:43:33;;;;;;;0.50;0.50;;;0.10;99.90;;;;;;5095768;28;20196;-68
2023/02/10 02:46:07;;;;;;;0.65;0.65;;;0.10;99.90;;;;;;5096276;28;20246;-68
2023/02/10 02:49:12;;;;;;;0.60;0.60;;;0.20;99.90;;;;;;5095974;28;20208;-68
2023/02/10 02:52:02;;;;;;;0.70;0.70;;;0.10;99.90;;;;;;5065462;28;20290;-68
2023/02/10 02:55:03;;;;;;;0.60;0.60;;;0.10;99.90;;;;;;5095997;28;20184;-68
2023/02/10 02:57:44;;;;;;;0.60;0.60;;;0.10;99.90;;;;;;5095825;28;20568;-69
2023/02/10 03:00:16;;;;;;;0.77;0.77;;;0.10;99.90;;;;;;5077699;28;20231;-67
2023/02/10 03:02:44;;;;;;;0.70;0.70;;;0.10;99.90;;;;;;5069092;28;20241;-68
2023/02/10 03:05:10;;;;;;;0.60;0.60;;;0.00;99.90;;;;;;5058373;28;20190;-68
2023/02/10 03:07:36;;;;;;;0.70;0.70;;;0.10;99.90;;;;;;5075074;28;20616;-68
2023/02/10 03:10:03;;;;;;;0.65;0.65;;;0.10;99.90;;;;;;5075498;28;20720;-67
2023/02/10 03:12:29;;;;;;;0.70;0.70;;;0.10;99.90;;;;;;5075304;28;20655;-68
2023/02/10 03:14:54;;;;;;;0.65;0.65;;;0.10;99.90;;;;;;5075313;28;20193;-68
2023/02/10 03:17:20;;;;;;;0.55;0.55;;;0.00;99.90;;;;;;5074938;28;20283;-69
2023/02/10 03:19:46;;;;;;;0.60;0.60;;;-0.10;99.90;;;;;;5075394;28;20239;-68
2023/02/10 03:22:11;;;;;;;0.80;0.80;;;0.00;99.90;;;;;;5073992;28;20678;-68
2023/02/10 03:24:38;;;;;;;0.50;0.50;;;0.00;99.90;;;;;;5075081;28;20200;-67
2023/02/10 03:27:05;;;;;;;0.63;0.63;;;-0.10;99.90;;;;;;5075219;28;20272;-68
2023/02/10 03:29:31;;;;;;;0.60;0.60;;;-0.20;99.90;;;;;;5074900;28;20207;-68
2023/02/10 03:32:01;;;;;;;0.60;0.60;;;-0.20;99.90;;;;;;5075195;28;20199;-67
2023/02/10 03:34:27;;;;;;;0.52;0.52;;;-0.20;99.90;;;;;;5073634;28;20193;-67
2023/02/10 03:36:53;;;;;;;0.68;0.68;;;-0.20;99.90;;;;;;5073609;28;20224;-67
2023/02/10 03:39:18;;;;;;;0.93;0.93;;;-0.20;99.90;;;;;;5074999;28;20705;-69
2023/02/10 03:41:44;;;;;;;0.70;0.70;;;-0.10;99.90;;;;;;5074877;28;20184;-67
2023/02/10 03:44:10;;;;;;;0.60;0.60;;;-0.20;99.90;;;;;;5075002;28;20254;-68
2023/02/10 03:46:36;;;;;;;0.70;0.70;;;-0.20;99.90;;;;;;5074792;28;20193;-67
2023/02/10 03:49:03;;;;;;;0.60;0.60;;;-0.10;99.90;;;;;;5073876;28;20207;-67
2023/02/10 03:51:29;;;;;;;0.70;0.70;;;-0.10;99.90;;;;;;5073001;28;20197;-69
2023/02/10 03:53:54;;;;;;;0.50;0.50;;;-0.20;99.90;;;;;;5074964;28;20204;-67
2023/02/10 03:56:20;;;;;;;0.50;0.50;;;-0.20;99.90;;;;;;5074677;28;20550;-68
2023/02/10 03:58:46;;;;;;;0.57;0.57;;;-0.20;99.90;;;;;;5074669;28;20193;-67
2023/02/10 04:01:14;;;;;;;0.70;0.70;;;-0.10;99.90;;;;;;5073345;28;20204;-68
2023/02/10 04:03:40;;;;;;;0.50;0.50;;;-0.10;99.90;;;;;;5087417;28;20716;-68
2023/02/10 04:06:07;;;;;;;0.50;0.50;;;-0.20;99.90;;;;;;5094689;28;20196;-67
2023/02/10 04:08:33;;;;;;;0.70;0.70;;;-0.30;99.90;;;;;;5094510;28;20206;-68
2023/02/10 04:10:58;;;;;;;0.68;0.68;;;-0.30;99.90;;;;;;5094610;28;20192;-68
2023/02/10 04:13:24;;;;;;;0.70;0.70;;;-0.40;99.90;;;;;;5094366;28;20659;-68
2023/02/10 04:16:01;;;;;;;0.60;0.60;;;-0.40;99.90;;;;;;5094473;28;20242;-67
2023/02/10 04:18:26;;;;;;;0.60;0.60;;;-0.50;99.90;;;;;;5076045;28;20211;-67
2023/02/10 04:20:52;;;;;;;0.63;0.63;;;-0.40;99.90;;;;;;5094279;28;20204;-67
2023/02/10 04:23:19;;;;;;;0.70;0.70;;;-0.50;99.90;;;;;;5094187;28;20224;-68
2023/02/10 04:25:45;;;;;;;0.80;0.80;;;-0.40;99.90;;;;;;5076178;28;20230;-67
2023/02/10 04:28:10;;;;;;;0.70;0.70;;;-0.40;99.90;;;;;;5094239;28;20207;-68
2023/02/10 04:30:36;;;;;;;0.80;0.80;;;-0.40;99.90;;;;;;5094325;28;20188;-68
2023/02/10 04:33:02;;;;;;;0.60;0.60;;;-0.40;99.90;;;;;;5094001;28;20188;-68
2023/02/10 04:35:28;;;;;;;0.52;0.52;;;-0.30;99.90;;;;;;5075713;28;20196;-68
2023/02/10 04:37:53;;;;;;;0.70;0.70;;;-0.40;99.90;;;;;;5094017;28;20215;-68
2023/02/10 04:40:19;;;;;;;0.50;0.50;;;-0.40;99.90;;;;;;5075802;28;20231;-70
2023/02/10 04:42:45;;;;;;;0.60;0.60;;;-0.50;99.90;;;;;;5094193;28;20188;-68
2023/02/10 04:45:11;;;;;;;0.60;0.60;;;-0.50;99.90;;;;;;5093844;28;20651;-68
2023/02/10 04:47:36;;;;;;;0.70;0.70;;;-0.60;99.90;;;;;;5093752;28;20584;-69
2023/02/10 04:50:04;;;;;;;0.57;0.57;;;-0.60;99.90;;;;;;5075584;28;20192;-67
2023/02/10 04:52:29;;;;;;;0.60;0.60;;;-0.60;99.90;;;;;;5093504;28;20192;-69
2023/02/10 04:54:55;;;;;;;0.60;0.60;;;-0.60;99.90;;;;;;5093528;28;20190;-68
2023/02/10 04:57:52;;;;;;;0.60;0.60;;;-0.70;99.90;;;;;;5075238;28;20196;-68
2023/02/10 05:00:18;;;;;;;0.68;0.68;;;-0.60;99.90;;;;;;5074596;28;20674;-67
2023/02/10 05:02:44;;;;;;;0.65;0.65;;;-0.60;99.90;;;;;;5090858;28;20620;-67
2023/02/10 05:05:11;;;;;;;0.60;0.60;;;-0.60;99.90;;;;;;5093489;28;20204;-67
2023/02/10 05:07:37;;;;;;;0.70;0.70;;;-0.60;99.90;;;;;;5075153;28;20565;-68
2023/02/10 05:10:02;;;;;;;0.80;0.80;;;-0.70;99.90;;;;;;5093371;28;20188;-67
2023/02/10 05:12:28;;;;;;;0.60;0.60;;;-0.70;99.90;;;;;;5093416;28;20271;-67
2023/02/10 05:14:54;;;;;;;0.68;0.68;;;-0.60;99.90;;;;;;5075203;28;20206;-67
2023/02/10 05:17:20;;;;;;;0.60;0.60;;;-0.70;99.90;;;;;;5093014;28;20249;-68
2023/02/10 05:19:45;;;;;;;0.70;0.70;;;-0.70;99.90;;;;;;5093319;28;20200;-68
2023/02/10 05:22:11;;;;;;;0.73;0.73;;;-0.70;99.90;;;;;;5093109;28;20200;-68
2023/02/10 05:24:37;;;;;;;0.80;0.80;;;-0.80;99.90;;;;;;5074796;28;21300;-68
2023/02/10 05:27:02;;;;;;;0.68;0.68;;;-0.80;99.90;;;;;;5093043;28;20203;-68
2023/02/10 05:29:30;;;;;;;0.70;0.70;;;-0.80;99.90;;;;;;5093006;28;20220;-68
2023/02/10 05:31:55;;;;;;;0.60;0.60;;;-0.90;99.90;;;;;;5093080;28;20206;-67
2023/02/10 05:34:21;;;;;;;2.00;1.90;;;-1.00;99.90;;;;;;5092975;28;20681;-68
2023/02/10 05:36:47;;;;;;;0.65;0.65;;;-0.90;99.90;;;;;;5074910;28;20249;-67
2023/02/10 05:39:25;;;;;;;0.73;0.73;;;-1.00;99.90;;;;;;5092766;28;20212;-68
2023/02/10 05:41:56;;;;;;;0.70;0.70;;;-1.00;99.90;;;;;;5092963;28;20275;-68
2023/02/10 05:44:23;;;;;;;0.77;0.77;;;-1.20;99.90;;;;;;5092898;28;20327;-68
2023/02/10 05:46:50;;;;;;;0.60;0.60;;;-1.30;99.90;;;;;;5092809;28;20184;-68
2023/02/10 05:49:16;;;;;;;0.65;0.65;;;-1.30;99.90;;;;;;5092902;28;20633;-68
2023/02/10 05:51:42;;;;;;;0.70;0.70;;;-1.40;99.90;;;;;;5074636;28;20192;-68
2023/02/10 05:54:08;;;;;;;0.70;0.70;;;-1.40;99.90;;;;;;5093137;28;20724;-67
2023/02/10 05:56:34;;;;;;;0.70;0.70;;;-1.30;99.90;;;;;;5074484;28;20241;-67
2023/02/10 05:59:00;;;;;;;0.60;0.60;;;-1.30;99.90;;;;;;5092778;28;20192;-68
2023/02/10 06:01:25;;;;;;;0.75;0.75;;;-1.30;99.90;;;;;;5074224;28;20263;-67
2023/02/10 06:03:51;;;;;;;0.60;0.60;;;-1.30;99.90;;;;;;5092529;28;20224;-68
2023/02/10 06:06:17;;;;;;;0.70;0.70;;;-1.30;99.90;;;;;;5092625;28;20673;-68
2023/02/10 06:08:43;;;;;;;5.15;2.88;;;-1.30;99.90;;;;;;5092566;28;20337;-67
2023/02/10 06:11:09;;;;;;;0.70;0.70;;;-1.20;99.90;;;;;;5093098;28;20199;-67
2023/02/10 06:13:36;;;;;;;0.70;0.70;;;-1.30;99.90;;;;;;5096657;28;20184;-68
2023/02/10 06:16:01;;;;;;;0.60;0.60;;;-1.20;99.90;;;;;;5096837;28;20219;-68
2023/02/10 06:18:28;;;;;;;0.70;0.70;;;-1.30;99.90;;;;;;5078335;28;20212;-67
2023/02/10 06:20:54;;;;;;;0.70;0.70;;;-1.40;99.90;;;;;;5096685;28;20245;-67
2023/02/10 06:23:20;;;;;;;0.75;0.75;;;-1.30;99.90;;;;;;5078288;28;20658;-68
2023/02/10 06:25:46;;;;;;;0.80;0.80;;;-1.30;99.90;;;;;;5078510;28;20192;-68
2023/02/10 06:28:14;;;;;;;0.70;0.70;;;-1.30;99.90;;;;;;5096407;28;20218;-68
2023/02/10 06:30:40;;;;;;;0.63;0.63;;;-1.30;99.90;;;;;;5096283;28;21224;-68
2023/02/10 06:33:06;;;;;;;0.55;0.55;;;-1.30;99.90;;;;;;5078052;28;20192;-67
2023/02/10 06:35:32;;;;;;;0.80;0.80;;;-1.30;99.90;;;;;;5096264;28;20184;-67
2023/02/10 06:37:57;;;;;;;0.70;0.70;;;-1.40;99.90;;;;;;5096543;28;20864;-67
2023/02/10 06:40:23;;;;;;;0.60;0.60;;;-1.50;99.90;;;;;;5096132;28;20210;-67
2023/02/10 06:42:49;;;;;;;0.80;0.80;;;-1.40;99.90;;;;;;5096402;28;20690;-68
2023/02/10 06:45:15;;;;;;;0.80;0.80;;;-1.30;99.90;;;;;;5096233;28;20224;-68
2023/02/10 06:47:40;;;;;;;0.68;0.68;;;-1.40;99.90;;;;;;5077797;28;20204;-68
2023/02/10 06:50:06;;;;;;;0.60;0.60;;;-1.50;99.90;;;;;;5096276;28;20301;-68
2023/02/10 06:52:34;;;;;;;0.60;0.60;;;-1.50;99.90;;;;;;5095679;28;20223;-69
2023/02/10 06:55:00;;;;;;;0.70;0.70;;;-1.50;99.90;;;;;;5077862;28;20188;-67
2023/02/10 06:57:26;;;;;;;0.60;0.60;;;-1.40;99.90;;;;;;5095763;28;20673;-68
2023/02/10 06:59:52;;;;;;;0.70;0.70;;;-1.40;99.90;;;;;;5095951;28;20199;-67
2023/02/10 07:02:18;;;;;;;0.60;0.60;;;-1.40;99.90;;;;;;5095071;28;20612;-69
2023/02/10 07:04:44;;;;;;;0.80;0.80;;;-1.40;99.90;;;;;;5077604;28;20208;-67
2023/02/10 07:07:09;;;;;;;0.70;0.70;;;-1.40;99.90;;;;;;5095691;28;20198;-67
2023/02/10 07:09:35;;;;;;;0.60;0.60;;;-1.40;99.90;;;;;;5095153;28;20237;-68
2023/02/10 07:12:01;;;;;;;0.60;0.60;;;-1.30;99.90;;;;;;5095681;28;20215;-68
2023/02/10 07:14:27;;;;;;;0.70;0.70;;;-1.30;99.90;;;;;;5095442;28;20226;-67
2023/02/10 07:16:52;;;;;;;0.60;0.60;;;-1.30;99.90;;;;;;5095556;28;20196;-68
2023/02/10 07:19:18;;;;;;;0.60;0.60;;;-1.30;99.90;;;;;;5095471;28;20280;-69
2023/02/10 07:21:44;;;;;;;0.70;0.70;;;-1.20;99.90;;;;;;5095368;28;20192;-67
2023/02/10 07:24:09;;;;;;;1.02;1.02;;;-1.20;99.90;;;;;;5094221;28;20202;-68
2023/02/10 07:26:36;;;;;;;0.70;0.70;;;-1.20;99.90;;;;;;5077210;28;20230;-67
2023/02/10 07:29:01;;;;;;;0.98;0.95;;;-1.20;99.90;;;;;;5095447;28;20208;-67
2023/02/10 07:31:27;;;;;;;0.70;0.70;;;-1.20;99.90;;;;;;5095188;28;20184;-68
2023/02/10 07:33:53;;;;;;;0.60;0.60;;;-1.20;99.90;;;;;;5095285;28;20192;-67
2023/02/10 07:36:18;;;;;;;0.63;0.63;;;-1.10;99.90;;;;;;5095376;28;20196;-69
2023/02/10 07:38:44;;;;;;;0.75;0.75;;;-1.10;99.90;;;;;;5095131;28;20200;-68
2023/02/10 07:41:10;;;;;;;0.60;0.60;;;-1.00;99.90;;;;;;5095276;28;20562;-68
2023/02/10 07:43:35;;;;;;;0.60;0.60;;;-1.00;99.90;;;;;;5094957;28;20196;-67
2023/02/10 07:46:01;;;;;;;0.60;0.60;;;-1.00;99.90;;;;;;5095116;28;20261;-67
2023/02/10 07:48:27;;;;;;;0.60;0.60;;;-1.00;99.90;;;;;;5076733;28;20215;-68
2023/02/10 07:50:53;;;;;;;0.60;0.60;;;-0.90;99.90;;;;;;5094981;28;20212;-69
2023/02/10 07:53:20;;;;;;;0.60;0.60;;;-0.80;99.90;;;;;;5094924;28;20401;-69
2023/02/10 07:55:46;;;;;;;0.70;0.70;;;-0.70;99.90;;;;;;5076896;28;20738;-68
2023/02/10 07:58:12;;;;;;;0.70;0.70;;;-0.80;99.90;;;;;;5076559;28;20231;-69
2023/02/10 08:00:38;;;;;;;0.50;0.50;;;-0.80;99.90;;;;;;5094525;28;20196;-68
2023/02/10 08:03:04;;;;;;;0.57;0.57;;;-0.70;99.90;;;;;;5094118;28;20228;-67
2023/02/10 08:05:30;;;;;;;2.58;2.35;;;-0.70;99.90;;;;;;5076340;28;20200;-68
2023/02/10 08:07:56;;;;;;;0.70;0.70;;;-0.60;99.90;;;;;;5094609;28;20226;-67
2023/02/10 08:10:22;;;;;;;0.60;0.60;;;-0.50;99.90;;;;;;5094247;28;20196;-68
2023/02/10 08:12:48;;;;;;;0.70;0.70;;;-0.50;99.90;;;;;;5094618;28;20196;-67
2023/02/10 08:15:16;;;;;;;0.60;0.60;;;-0.50;99.90;;;;;;5094466;28;20217;-68
2023/02/10 08:17:43;;;;;;;0.70;0.70;;;-0.50;99.90;;;;;;5076154;28;20195;-68
2023/02/10 08:20:10;;;;;;;1.08;0.98;;;-0.40;99.90;;;;;;5094378;28;20192;-67
2023/02/10 08:22:36;;;;;;;0.60;0.60;;;-0.40;99.90;;;;;;5076003;28;20242;-67
2023/02/10 08:25:02;;;;;;;0.60;0.60;;;-0.30;99.90;;;;;;5094399;28;20215;-67
2023/02/10 08:27:28;;;;;;;0.60;0.60;;;-0.20;99.90;;;;;;5075929;28;20745;-67
2023/02/10 08:29:54;;;;;;;0.75;0.75;;;-0.20;99.90;;;;;;5094318;28;20192;-68
2023/02/10 08:32:21;;;;;;;0.65;0.65;;;-0.20;99.90;;;;;;5094032;28;20718;-68
2023/02/10 08:34:48;;;;;;;0.63;0.63;;;-0.10;99.90;;;;;;5094035;28;20631;-68
2023/02/10 08:37:15;;;;;;;0.70;0.70;;;0.00;99.90;;;;;;5075854;28;20712;-67
2023/02/10 08:39:40;;;;;;;0.50;0.50;;;0.10;99.90;;;;;;5093900;28;20653;-68
2023/02/10 08:42:06;;;;;;;0.63;0.63;;;0.10;99.90;;;;;;5075875;28;20189;-68
2023/02/10 08:44:33;;;;;;;0.60;0.60;;;0.20;99.90;;;;;;5093838;28;20207;-67
2023/02/10 08:47:00;;;;;;;0.80;0.80;;;0.30;99.90;;;;;;5093952;28;20185;-68
2023/02/10 08:49:27;;;;;;;0.80;0.80;;;0.30;99.90;;;;;;5093727;28;20574;-68
2023/02/10 08:51:53;;;;;;;0.70;0.70;;;0.40;99.90;;;;;;5075647;28;20193;-68
2023/02/10 08:54:19;;;;;;;0.60;0.60;;;0.40;99.90;;;;;;5093752;28;20263;-69
2023/02/10 08:56:45;;;;;;;0.70;0.70;;;0.50;99.90;;;;;;5093740;28;20703;-68
2023/02/10 08:59:11;;;;;;;0.95;0.95;;;0.60;99.90;;;;;;5093621;28;20195;-69
2023/02/10 09:01:37;;;;;;;0.63;0.63;;;0.70;99.90;;;;;;5093158;28;20573;-68
2023/02/10 09:04:03;;;;;;;0.60;0.60;;;0.80;99.90;;;;;;5093431;28;20227;-68
2023/02/10 09:06:38;;;;;;;0.65;0.65;;;0.80;99.90;;;;;;5075075;28;20685;-68
2023/02/10 09:09:08;;;;;;;0.70;0.70;;;0.90;99.90;;;;;;5093445;28;20196;-68
2023/02/10 09:11:34;;;;;;;0.55;0.55;;;0.90;99.90;;;;;;5093262;28;20189;-68
2023/02/10 09:14:00;;;;;;;0.60;0.60;;;0.90;99.90;;;;;;5093556;28;20237;-67
2023/02/10 09:16:26;;;;;;;0.70;0.70;;;0.90;99.90;;;;;;5093404;28;20184;-68
2023/02/10 09:18:52;;;;;;;0.60;0.60;;;1.00;99.90;;;;;;5093176;28;20254;-68
2023/02/10 09:21:17;;;;;;;0.55;0.55;;;1.00;99.90;;;;;;5093239;28;20319;-70
2023/02/10 09:23:43;;;;;;;0.70;0.70;;;1.10;99.90;;;;;;5092987;28;20275;-71
2023/02/10 09:26:09;;;;;;;2.05;1.25;;;1.20;99.90;;;;;;5093667;28;20192;-68
2023/02/10 09:28:35;;;;;;;0.60;0.60;;;1.20;99.90;;;;;;5093031;28;20204;-68
2023/02/10 09:31:04;;;;;;;0.60;0.60;;;1.30;99.90;;;;;;5075223;28;20222;-67
2023/02/10 09:33:29;;;;;;;0.60;0.60;;;1.30;99.90;;;;;;5093145;28;20191;-69
2023/02/10 09:35:55;;;;;;;0.60;0.60;;;1.40;99.90;;;;;;5075121;28;20213;-68
2023/02/10 09:38:21;;;;;;;0.70;0.70;;;1.50;99.90;;;;;;5092915;28;20200;-69
2023/02/10 09:41:09;;;;;;;0.70;0.70;;;1.40;99.90;;;;;;5074981;28;20230;-68
2023/02/10 09:43:43;;;;;;;0.50;0.50;;;1.40;99.90;;;;;;5074818;28;20658;-68
2023/02/10 09:46:41;;;;;;;0.57;0.57;;;1.50;99.90;;;;;;5092326;28;20197;-68
2023/02/10 09:49:07;;;;;;;0.70;0.70;;;1.50;99.90;;;;;;5092918;28;20701;-69
2023/02/10 09:51:52;;;;;;;0.50;0.50;;;1.80;99.90;;;;;;5092763;28;20253;-68
2023/02/10 09:54:19;;;;;;;0.63;0.63;;;2.00;99.90;;;;;;5093085;28;20172;-68
2023/02/10 09:56:45;;;;;;;0.52;0.52;;;2.00;99.90;;;;;;5092822;28;20192;-69
2023/02/10 09:59:16;;;;;;;0.60;0.60;;;1.90;99.90;;;;;;5092803;28;20560;-68
2023/02/10 10:01:57;;;;;;;0.70;0.70;;;1.80;99.90;;;;;;5092139;28;20196;-68
2023/02/10 10:04:24;;;;;;;0.68;0.68;;;1.90;99.90;;;;;;5092521;28;20690;-68
2023/02/10 10:07:21;;;;;;;0.73;0.73;;;1.90;99.90;;;;;;5092737;28;20599;-67
2023/02/10 10:09:57;;;;;;;5.07;2.28;;;1.80;99.90;;;;;;5074654;28;20256;-68
2023/02/10 10:12:23;;;;;;;1.75;0.98;;;1.60;99.90;;;;;;5092474;28;20187;-68
2023/02/10 10:14:49;;;;;;;0.60;0.60;;;1.70;99.90;;;;;;5092690;28;20639;-67
2023/02/10 10:17:43;;;;;;;0.60;0.60;;;1.80;99.90;;;;;;5074504;28;20192;-68
2023/02/10 10:20:22;;;;;;;0.70;0.70;;;1.90;99.90;;;;;;5092640;28;20662;-68
2023/02/10 10:23:16;;;;;;;0.60;0.60;;;2.00;99.90;;;;;;5092674;28;20192;-68
2023/02/10 10:26:32;;;;;;;0.60;0.60;;;2.00;99.90;;;;;;5092716;28;20192;-68
2023/02/10 10:29:07;;;;;;;0.50;0.50;;;2.20;99.90;;;;;;5058196;28;20740;-68
2023/02/10 10:31:39;;;;;;;0.73;0.73;;;2.30;99.90;;;;;;5092244;28;20654;-68
2023/02/10 10:34:12;;;;;;;0.60;0.60;;;2.40;99.90;;;;;;5092533;28;20564;-68
2023/02/10 10:36:44;;;;;;;0.60;0.60;;;2.60;99.90;;;;;;5092286;28;20204;-69
2023/02/10 10:39:23;;;;;;;0.50;0.50;;;2.90;99.90;;;;;;5092428;28;20720;-69
2023/02/10 10:41:49;;;;;;;0.50;0.50;;;3.20;99.90;;;;;;5092381;28;20237;-68
2023/02/10 10:44:17;;;;;;;1.05;0.98;;;3.40;99.90;;;;;;5092373;28;20216;-68
2023/02/10 10:46:43;;;;;;;0.60;0.60;;;3.60;99.90;;;;;;5092346;28;20540;-68
2023/02/10 10:49:09;;;;;;;0.68;0.68;;;3.60;99.90;;;;;;5074172;28;20212;-69
2023/02/10 10:51:35;;;;;;;0.65;0.65;;;3.50;99.90;;;;;;5092166;28;20250;-68
2023/02/10 10:54:02;;;;;;;0.60;0.60;;;3.40;99.90;;;;;;5092330;28;20180;-68
2023/02/10 10:56:43;;;;;;;0.63;0.63;;;3.30;99.90;;;;;;5073833;28;20291;-68
2023/02/10 10:59:14;;;;;;;0.80;0.80;;;3.30;99.90;;;;;;5095656;28;20278;-68
2023/02/10 11:01:43;;;;;;;0.77;0.77;;;3.30;99.90;;;;;;5095337;28;20195;-69
2023/02/10 11:04:17;;;;;;;0.70;0.70;;;3.20;99.90;;;;;;5095737;28;20714;-68
2023/02/10 11:06:50;;;;;;;0.63;0.63;;;3.20;99.90;;;;;;5095764;28;20562;-68
2023/02/10 11:09:22;;;;;;;0.60;0.60;;;3.00;99.90;;;;;;5077434;28;20674;-68
2023/02/10 11:11:49;;;;;;;1.00;1.00;;;2.80;99.90;;;;;;5095688;28;20192;-69
2023/02/10 11:14:27;;;;;;;0.75;0.75;;;2.80;99.90;;;;;;5095893;28;20238;-68
2023/02/10 11:17:04;;;;;;;0.70;0.70;;;2.80;99.90;;;;;;5095768;28;20192;-69
2023/02/10 11:19:34;;;;;;;0.60;0.60;;;2.70;99.90;;;;;;5077299;28;20688;-70
2023/02/10 11:22:00;;;;;;;0.60;0.60;;;2.70;99.90;;;;;;5095553;28;20277;-68
2023/02/10 11:24:32;;;;;;;0.60;0.60;;;2.50;99.90;;;;;;5095285;28;20657;-69
2023/02/10 11:27:00;;;;;;;0.50;0.50;;;2.60;99.90;;;;;;5095456;28;20224;-68
2023/02/10 11:29:28;;;;;;;0.60;0.60;;;2.70;99.90;;;;;;5095215;28;20204;-69
2023/02/10 11:31:55;;;;;;;0.70;0.70;;;2.50;99.90;;;;;;5077378;28;20697;-69
2023/02/10 11:34:24;;;;;;;0.60;0.60;;;2.50;99.90;;;;;;5077057;28;20348;-69
2023/02/10 11:36:51;;;;;;;0.55;0.55;;;2.60;99.90;;;;;;5077190;28;20192;-69
2023/02/10 11:39:35;;;;;;;0.60;0.60;;;2.70;99.90;;;;;;5095198;28;20188;-69
2023/02/10 11:42:10;;;;;;;0.60;0.60;;;2.70;99.90;;;;;;5077028;28;20330;-69
2023/02/10 11:44:35;;;;;;;0.68;0.68;;;2.50;99.90;;;;;;5095037;28;20196;-70
2023/02/10 11:47:05;;;;;;;0.50;0.50;;;2.50;99.90;;;;;;5095102;28;20195;-69
2023/02/10 11:49:34;;;;;;;0.70;0.70;;;2.50;99.90;;;;;;5094823;28;20739;-68
2023/02/10 11:52:01;;;;;;;0.52;0.52;;;2.40;99.90;;;;;;5095030;28;20189;-69
2023/02/10 11:54:28;;;;;;;0.60;0.60;;;2.40;99.90;;;;;;5094668;28;20272;-69
2023/02/10 12:00:20;;;;;;;3.40;1.60;;;2.40;99.90;;;;;;5094939;28;20220;-68
2023/02/10 12:02:51;;;;;;;0.70;0.70;;;2.50;99.90;;;;;;5072681;28;20216;-69
2023/02/10 12:05:39;;;;;;;0.60;0.60;;;2.40;99.90;;;;;;5073181;28;20291;-68
2023/02/10 12:08:14;;;;;;;0.60;0.60;;;2.40;99.90;;;;;;5053158;28;20221;-69
2023/02/10 12:10:55;;;;;;;0.70;0.70;;;2.40;99.90;;;;;;5073486;28;20220;-71
2023/02/10 12:13:41;;;;;;;0.63;0.63;;;2.40;99.90;;;;;;5074273;28;20193;-71
2023/02/10 12:16:39;;;;;;;0.68;0.68;;;2.40;99.90;;;;;;5074368;28;20199;-69
2023/02/10 12:19:36;;;;;;;0.70;0.70;;;2.40;99.90;;;;;;5074261;28;20538;-68
2023/02/10 12:22:07;;;;;;;0.50;0.50;;;2.30;99.90;;;;;;5067507;28;20237;-68
2023/02/10 12:25:02;;;;;;;0.60;0.60;;;2.40;99.90;;;;;;5074129;28;20227;-69
2023/02/10 12:27:28;;;;;;;0.60;0.60;;;2.40;99.90;;;;;;5073776;28;20238;-69
2023/02/10 12:30:04;;;;;;;0.52;0.52;;;2.30;99.90;;;;;;5094191;28;20197;-69
2023/02/10 12:33:07;;;;;;;0.60;0.60;;;2.30;99.90;;;;;;5094002;28;20206;-69
2023/02/10 12:35:33;;;;;;;0.60;0.60;;;2.40;99.90;;;;;;5094026;28;20180;-68
2023/02/10 12:38:17;;;;;;;0.60;0.60;;;2.40;99.90;;;;;;5094144;28;20196;-68
2023/02/10 12:41:04;;;;;;;0.50;0.50;;;2.30;99.90;;;;;;5094046;28;20878;-69
2023/02/10 12:43:33;;;;;;;0.60;0.60;;;2.20;99.90;;;;;;5093980;28;20192;-69
2023/02/10 12:46:04;;;;;;;1.00;1.00;;;2.10;99.90;;;;;;5094050;28;20200;-68
2023/02/10 12:48:53;;;;;;;2.42;1.65;;;2.00;99.90;;;;;;5093547;28;20216;-68
2023/02/10 12:51:21;;;;;;;0.52;0.52;;;2.10;99.90;;;;;;5093723;28;20599;-70
2023/02/10 12:54:14;;;;;;;0.80;0.80;;;2.10;99.90;;;;;;5094185;28;20191;-68
2023/02/10 12:56:55;;;;;;;0.63;0.63;;;2.00;99.90;;;;;;5092888;28;20291;-68
2023/02/10 12:59:34;;;;;;;0.80;0.80;;;2.10;99.90;;;;;;5075302;28;20544;-70
2023/02/10 13:02:06;;;;;;;0.60;0.60;;;2.10;99.90;;;;;;5093206;28;20200;-70
2023/02/10 13:04:37;;;;;;;0.70;0.70;;;2.10;99.90;;;;;;5075195;28;20263;-68
2023/02/10 13:07:25;;;;;;;0.70;0.70;;;2.10;99.90;;;;;;5093598;28;20188;-70
2023/02/10 13:10:49;;;;;;;0.70;0.70;;;2.20;99.90;;;;;;5093707;28;20200;-68
2023/02/10 13:13:20;;;;;;;0.60;0.60;;;2.20;99.90;;;;;;5078275;28;20605;-69
2023/02/10 13:15:51;;;;;;;0.60;0.60;;;2.20;99.90;;;;;;5075318;28;20669;-68